sensor_id;sensor_type;location;lat;lon;timestamp;P1;durP1;ratioP1;P2;durP2;ratioP2
63005;SDS011;53704;52.532;6.426;2023-03-01T00:01:08;13.43;;;9.87;;
63005;SDS011;53704;52.532;6.426;2023-03-01T00:03:35;12.57;;;9.80;;
63005;SDS011;53704;52.532;6.426;2023-03-01T00:06:01;11.73;;;10.00;;
63005;SDS011;53704;52.532;6.426;2023-03-01T00:08:27;10.93;;;9.77;;
63005;SDS011;53704;52.532;6.426;2023-03-01T00:11:07;10.40;;;9.40;;
63005;SDS011;53704;52.532;6.426;2023-03-01T00:13:40;15.97;;;9.47;;
63005;SDS011;53704;52.532;6.426;2023-03-01T00:16:07;16.30;;;9.33;;
63005;SDS011;53704;52.532;6.426;2023-03-01T00:18:34;12.27;;;10.73;;
63005;SDS011;53704;52.532;6.426;2023-03-01T00:21:00;12.67;;;9.73;;
63005;SDS011;53704;52.532;6.426;2023-03-01T00:23:26;18.30;;;10.23;;
63005;SDS011;53704;52.532;6.426;2023-03-01T00:25:52;11.70;;;10.27;;
63005;SDS011;53704;52.532;6.426;2023-03-01T00:28:18;12.33;;;10.50;;
63005;SDS011;53704;52.532;6.426;2023-03-01T00:30:44;14.73;;;10.13;;
63005;SDS011;53704;52.532;6.426;2023-03-01T00:33:10;17.83;;;10.63;;
63005;SDS011;53704;52.532;6.426;2023-03-01T00:35:36;13.77;;;9.83;;
63005;SDS011;53704;52.532;6.426;2023-03-01T00:38:01;12.77;;;9.87;;
63005;SDS011;53704;52.532;6.426;2023-03-01T00:40:27;12.53;;;8.90;;
63005;SDS011;53704;52.532;6.426;2023-03-01T00:42:53;14.77;;;10.43;;
63005;SDS011;53704;52.532;6.426;2023-03-01T00:45:19;14.53;;;9.57;;
63005;SDS011;53704;52.532;6.426;2023-03-01T00:47:45;12.37;;;9.50;;
63005;SDS011;53704;52.532;6.426;2023-03-01T00:50:11;16.03;;;10.37;;
63005;SDS011;53704;52.532;6.426;2023-03-01T00:52:37;18.13;;;11.40;;
63005;SDS011;53704;52.532;6.426;2023-03-01T00:55:02;11.43;;;9.37;;
63005;SDS011;53704;52.532;6.426;2023-03-01T00:57:29;13.03;;;9.97;;
63005;SDS011;53704;52.532;6.426;2023-03-01T00:59:54;20.20;;;10.27;;
63005;SDS011;53704;52.532;6.426;2023-03-01T01:02:20;11.50;;;9.83;;
63005;SDS011;53704;52.532;6.426;2023-03-01T01:04:46;12.97;;;10.13;;
63005;SDS011;53704;52.532;6.426;2023-03-01T01:07:11;11.53;;;9.47;;
63005;SDS011;53704;52.532;6.426;2023-03-01T01:09:38;15.83;;;10.57;;
63005;SDS011;53704;52.532;6.426;2023-03-01T01:12:03;13.53;;;9.03;;
63005;SDS011;53704;52.532;6.426;2023-03-01T01:14:29;13.83;;;10.43;;
63005;SDS011;53704;52.532;6.426;2023-03-01T01:16:55;16.33;;;10.13;;
63005;SDS011;53704;52.532;6.426;2023-03-01T01:19:20;17.17;;;10.07;;
63005;SDS011;53704;52.532;6.426;2023-03-01T01:21:46;14.03;;;9.30;;
63005;SDS011;53704;52.532;6.426;2023-03-01T01:24:13;10.27;;;9.23;;
63005;SDS011;53704;52.532;6.426;2023-03-01T01:26:39;13.53;;;8.90;;
63005;SDS011;53704;52.532;6.426;2023-03-01T01:29:05;15.13;;;8.90;;
63005;SDS011;53704;52.532;6.426;2023-03-01T01:31:32;17.13;;;9.57;;
63005;SDS011;53704;52.532;6.426;2023-03-01T01:33:58;16.87;;;8.90;;
63005;SDS011;53704;52.532;6.426;2023-03-01T01:36:26;13.47;;;9.20;;
63005;SDS011;53704;52.532;6.426;2023-03-01T01:38:51;14.07;;;8.83;;
63005;SDS011;53704;52.532;6.426;2023-03-01T01:41:18;9.27;;;8.33;;
63005;SDS011;53704;52.532;6.426;2023-03-01T01:43:46;10.97;;;8.87;;
63005;SDS011;53704;52.532;6.426;2023-03-01T01:46:21;11.43;;;8.50;;
63005;SDS011;53704;52.532;6.426;2023-03-01T01:48:58;11.33;;;8.10;;
63005;SDS011;53704;52.532;6.426;2023-03-01T01:51:29;10.35;;;7.55;;
63005;SDS011;53704;52.532;6.426;2023-03-01T01:54:03;12.65;;;7.78;;
63005;SDS011;53704;52.532;6.426;2023-03-01T01:56:35;11.17;;;8.60;;
63005;SDS011;53704;52.532;6.426;2023-03-01T01:59:03;9.20;;;8.23;;
63005;SDS011;53704;52.532;6.426;2023-03-01T02:01:28;15.33;;;8.80;;
63005;SDS011;53704;52.532;6.426;2023-03-01T02:03:54;12.27;;;8.37;;
63005;SDS011;53704;52.532;6.426;2023-03-01T02:06:28;8.47;;;7.70;;
63005;SDS011;53704;52.532;6.426;2023-03-01T02:08:57;9.37;;;8.23;;
63005;SDS011;53704;52.532;6.426;2023-03-01T02:11:27;10.53;;;8.27;;
63005;SDS011;53704;52.532;6.426;2023-03-01T02:13:54;10.70;;;8.27;;
63005;SDS011;53704;52.532;6.426;2023-03-01T02:16:20;11.43;;;8.47;;
63005;SDS011;53704;52.532;6.426;2023-03-01T02:18:45;10.67;;;8.17;;
63005;SDS011;53704;52.532;6.426;2023-03-01T02:26:53;10.10;;;8.32;;
63005;SDS011;53704;52.532;6.426;2023-03-01T02:29:22;10.77;;;9.47;;
63005;SDS011;53704;52.532;6.426;2023-03-01T02:31:48;11.33;;;8.90;;
63005;SDS011;53704;52.532;6.426;2023-03-01T02:34:23;13.30;;;9.10;;
63005;SDS011;53704;52.532;6.426;2023-03-01T02:36:59;12.03;;;9.03;;
63005;SDS011;53704;52.532;6.426;2023-03-01T02:39:43;16.43;;;9.07;;
63005;SDS011;53704;52.532;6.426;2023-03-01T02:42:14;14.20;;;8.77;;
63005;SDS011;53704;52.532;6.426;2023-03-01T02:44:45;14.80;;;9.53;;
63005;SDS011;53704;52.532;6.426;2023-03-01T02:47:10;14.93;;;9.50;;
63005;SDS011;53704;52.532;6.426;2023-03-01T02:49:36;12.93;;;9.80;;
63005;SDS011;53704;52.532;6.426;2023-03-01T02:57:19;12.70;;;10.43;;
63005;SDS011;53704;52.532;6.426;2023-03-01T02:59:46;11.03;;;9.67;;
63005;SDS011;53704;52.532;6.426;2023-03-01T03:02:24;11.87;;;10.23;;
63005;SDS011;53704;52.532;6.426;2023-03-01T03:05:22;13.40;;;10.07;;
63005;SDS011;53704;52.532;6.426;2023-03-01T03:07:48;13.47;;;9.23;;
63005;SDS011;53704;52.532;6.426;2023-03-01T03:10:17;11.97;;;10.60;;
63005;SDS011;53704;52.532;6.426;2023-03-01T03:12:51;11.33;;;9.70;;
63005;SDS011;53704;52.532;6.426;2023-03-01T03:15:18;13.83;;;10.13;;
63005;SDS011;53704;52.532;6.426;2023-03-01T03:17:45;14.17;;;10.87;;
63005;SDS011;53704;52.532;6.426;2023-03-01T03:20:12;15.43;;;11.40;;
63005;SDS011;53704;52.532;6.426;2023-03-01T03:22:43;13.43;;;10.87;;
63005;SDS011;53704;52.532;6.426;2023-03-01T03:25:10;14.30;;;10.83;;
63005;SDS011;53704;52.532;6.426;2023-03-01T03:27:38;12.90;;;10.17;;
63005;SDS011;53704;52.532;6.426;2023-03-01T03:30:06;11.73;;;10.53;;
63005;SDS011;53704;52.532;6.426;2023-03-01T03:32:40;18.53;;;10.90;;
63005;SDS011;53704;52.532;6.426;2023-03-01T03:35:07;16.47;;;10.63;;
63005;SDS011;53704;52.532;6.426;2023-03-01T03:37:40;16.73;;;10.10;;
63005;SDS011;53704;52.532;6.426;2023-03-01T03:40:25;12.23;;;10.10;;
63005;SDS011;53704;52.532;6.426;2023-03-01T03:42:51;14.03;;;10.27;;
63005;SDS011;53704;52.532;6.426;2023-03-01T03:45:17;16.77;;;11.17;;
63005;SDS011;53704;52.532;6.426;2023-03-01T03:47:43;16.60;;;9.93;;
63005;SDS011;53704;52.532;6.426;2023-03-01T03:50:09;12.27;;;10.40;;
63005;SDS011;53704;52.532;6.426;2023-03-01T03:52:39;17.13;;;11.07;;
63005;SDS011;53704;52.532;6.426;2023-03-01T03:55:05;14.30;;;10.80;;
63005;SDS011;53704;52.532;6.426;2023-03-01T03:57:35;13.27;;;10.43;;
63005;SDS011;53704;52.532;6.426;2023-03-01T04:00:04;14.27;;;10.67;;
63005;SDS011;53704;52.532;6.426;2023-03-01T04:02:38;15.03;;;10.93;;
63005;SDS011;53704;52.532;6.426;2023-03-01T04:05:04;15.17;;;11.17;;
63005;SDS011;53704;52.532;6.426;2023-03-01T04:07:30;15.73;;;11.47;;
63005;SDS011;53704;52.532;6.426;2023-03-01T04:09:55;12.40;;;10.30;;
63005;SDS011;53704;52.532;6.426;2023-03-01T04:12:21;12.27;;;10.27;;
63005;SDS011;53704;52.532;6.426;2023-03-01T04:14:48;14.97;;;10.57;;
63005;SDS011;53704;52.532;6.426;2023-03-01T04:17:13;15.83;;;10.43;;
63005;SDS011;53704;52.532;6.426;2023-03-01T04:19:39;17.27;;;10.40;;
63005;SDS011;53704;52.532;6.426;2023-03-01T04:22:04;14.50;;;11.13;;
63005;SDS011;53704;52.532;6.426;2023-03-01T04:24:37;13.10;;;10.90;;
63005;SDS011;53704;52.532;6.426;2023-03-01T04:27:03;12.77;;;10.27;;
63005;SDS011;53704;52.532;6.426;2023-03-01T04:29:28;15.87;;;10.80;;
63005;SDS011;53704;52.532;6.426;2023-03-01T04:31:54;16.73;;;11.57;;
63005;SDS011;53704;52.532;6.426;2023-03-01T04:34:19;14.03;;;11.20;;
63005;SDS011;53704;52.532;6.426;2023-03-01T04:36:45;14.67;;;11.50;;
63005;SDS011;53704;52.532;6.426;2023-03-01T04:39:11;16.30;;;11.77;;
63005;SDS011;53704;52.532;6.426;2023-03-01T04:41:39;19.97;;;12.17;;
63005;SDS011;53704;52.532;6.426;2023-03-01T04:44:05;14.97;;;11.43;;
63005;SDS011;53704;52.532;6.426;2023-03-01T04:46:31;13.60;;;11.70;;
63005;SDS011;53704;52.532;6.426;2023-03-01T04:48:56;14.20;;;11.40;;
63005;SDS011;53704;52.532;6.426;2023-03-01T04:51:22;22.33;;;12.37;;
63005;SDS011;53704;52.532;6.426;2023-03-01T04:53:47;13.27;;;11.77;;
63005;SDS011;53704;52.532;6.426;2023-03-01T04:56:13;20.17;;;12.43;;
63005;SDS011;53704;52.532;6.426;2023-03-01T04:58:39;16.53;;;12.93;;
63005;SDS011;53704;52.532;6.426;2023-03-01T05:01:18;15.50;;;11.70;;
63005;SDS011;53704;52.532;6.426;2023-03-01T05:03:46;20.77;;;12.47;;
63005;SDS011;53704;52.532;6.426;2023-03-01T05:06:13;19.20;;;12.13;;
63005;SDS011;53704;52.532;6.426;2023-03-01T05:08:39;19.70;;;13.23;;
63005;SDS011;53704;52.532;6.426;2023-03-01T05:11:05;15.80;;;13.17;;
63005;SDS011;53704;52.532;6.426;2023-03-01T05:13:34;18.10;;;12.87;;
63005;SDS011;53704;52.532;6.426;2023-03-01T05:16:01;16.50;;;12.73;;
63005;SDS011;53704;52.532;6.426;2023-03-01T05:18:28;19.97;;;11.17;;
63005;SDS011;53704;52.532;6.426;2023-03-01T05:21:01;16.10;;;12.33;;
63005;SDS011;53704;52.532;6.426;2023-03-01T05:23:37;14.60;;;11.90;;
63005;SDS011;53704;52.532;6.426;2023-03-01T05:26:03;18.87;;;12.83;;
63005;SDS011;53704;52.532;6.426;2023-03-01T05:28:30;18.37;;;12.23;;
63005;SDS011;53704;52.532;6.426;2023-03-01T05:30:56;18.17;;;12.40;;
63005;SDS011;53704;52.532;6.426;2023-03-01T05:33:22;14.20;;;11.83;;
63005;SDS011;53704;52.532;6.426;2023-03-01T05:35:49;18.00;;;12.13;;
63005;SDS011;53704;52.532;6.426;2023-03-01T05:38:16;17.70;;;11.93;;
63005;SDS011;53704;52.532;6.426;2023-03-01T05:40:43;22.63;;;12.70;;
63005;SDS011;53704;52.532;6.426;2023-03-01T05:43:09;21.87;;;12.47;;
63005;SDS011;53704;52.532;6.426;2023-03-01T05:45:36;20.50;;;12.03;;
63005;SDS011;53704;52.532;6.426;2023-03-01T05:48:03;22.20;;;13.67;;
63005;SDS011;53704;52.532;6.426;2023-03-01T05:50:32;19.40;;;12.80;;
63005;SDS011;53704;52.532;6.426;2023-03-01T05:55:26;20.93;;;13.20;;
63005;SDS011;53704;52.532;6.426;2023-03-01T05:57:52;22.73;;;13.40;;
63005;SDS011;53704;52.532;6.426;2023-03-01T06:00:18;17.60;;;12.83;;
63005;SDS011;53704;52.532;6.426;2023-03-01T06:02:47;16.27;;;12.60;;
63005;SDS011;53704;52.532;6.426;2023-03-01T06:05:12;19.00;;;13.93;;
63005;SDS011;53704;52.532;6.426;2023-03-01T06:07:38;21.47;;;14.43;;
63005;SDS011;53704;52.532;6.426;2023-03-01T06:10:04;19.37;;;13.83;;
63005;SDS011;53704;52.532;6.426;2023-03-01T06:12:32;22.90;;;14.07;;
63005;SDS011;53704;52.532;6.426;2023-03-01T06:14:58;25.37;;;14.10;;
63005;SDS011;53704;52.532;6.426;2023-03-01T06:17:24;21.20;;;14.53;;
63005;SDS011;53704;52.532;6.426;2023-03-01T06:19:49;19.23;;;13.60;;
63005;SDS011;53704;52.532;6.426;2023-03-01T06:22:15;22.27;;;14.43;;
63005;SDS011;53704;52.532;6.426;2023-03-01T06:24:40;20.90;;;14.33;;
63005;SDS011;53704;52.532;6.426;2023-03-01T06:27:06;28.47;;;15.63;;
63005;SDS011;53704;52.532;6.426;2023-03-01T06:29:31;24.37;;;14.90;;
63005;SDS011;53704;52.532;6.426;2023-03-01T06:31:57;19.17;;;14.30;;
63005;SDS011;53704;52.532;6.426;2023-03-01T06:34:22;22.20;;;15.47;;
63005;SDS011;53704;52.532;6.426;2023-03-01T06:36:48;19.53;;;14.87;;
63005;SDS011;53704;52.532;6.426;2023-03-01T06:39:13;32.30;;;18.23;;
63005;SDS011;53704;52.532;6.426;2023-03-01T06:41:38;27.97;;;17.53;;
63005;SDS011;53704;52.532;6.426;2023-03-01T06:44:04;25.93;;;18.13;;
63005;SDS011;53704;52.532;6.426;2023-03-01T06:46:29;28.40;;;18.20;;
63005;SDS011;53704;52.532;6.426;2023-03-01T06:48:55;28.43;;;18.87;;
63005;SDS011;53704;52.532;6.426;2023-03-01T06:51:21;34.53;;;20.03;;
63005;SDS011;53704;52.532;6.426;2023-03-01T06:53:46;33.10;;;19.63;;
63005;SDS011;53704;52.532;6.426;2023-03-01T06:56:12;26.63;;;17.60;;
63005;SDS011;53704;52.532;6.426;2023-03-01T06:58:37;33.93;;;18.40;;
63005;SDS011;53704;52.532;6.426;2023-03-01T07:01:06;32.10;;;18.70;;
63005;SDS011;53704;52.532;6.426;2023-03-01T07:03:32;31.17;;;19.20;;
63005;SDS011;53704;52.532;6.426;2023-03-01T07:05:58;30.57;;;18.33;;
63005;SDS011;53704;52.532;6.426;2023-03-01T07:08:23;28.30;;;19.30;;
63005;SDS011;53704;52.532;6.426;2023-03-01T07:10:54;36.73;;;18.07;;
63005;SDS011;53704;52.532;6.426;2023-03-01T07:13:22;30.93;;;18.23;;
63005;SDS011;53704;52.532;6.426;2023-03-01T07:15:48;26.23;;;18.50;;
63005;SDS011;53704;52.532;6.426;2023-03-01T07:18:13;24.23;;;17.13;;
63005;SDS011;53704;52.532;6.426;2023-03-01T07:20:39;21.20;;;16.13;;
63005;SDS011;53704;52.532;6.426;2023-03-01T07:23:05;20.87;;;16.07;;
63005;SDS011;53704;52.532;6.426;2023-03-01T07:25:31;19.97;;;15.93;;
63005;SDS011;53704;52.532;6.426;2023-03-01T07:27:57;19.93;;;16.07;;
63005;SDS011;53704;52.532;6.426;2023-03-01T07:30:23;25.10;;;17.40;;
63005;SDS011;53704;52.532;6.426;2023-03-01T07:32:51;24.17;;;17.90;;
63005;SDS011;53704;52.532;6.426;2023-03-01T07:35:16;28.77;;;17.03;;
63005;SDS011;53704;52.532;6.426;2023-03-01T07:37:42;26.67;;;17.83;;
63005;SDS011;53704;52.532;6.426;2023-03-01T07:40:08;22.73;;;17.67;;
63005;SDS011;53704;52.532;6.426;2023-03-01T07:42:34;26.27;;;17.37;;
63005;SDS011;53704;52.532;6.426;2023-03-01T07:44:59;27.27;;;19.17;;
63005;SDS011;53704;52.532;6.426;2023-03-01T07:47:25;26.20;;;19.27;;
63005;SDS011;53704;52.532;6.426;2023-03-01T07:49:50;30.27;;;20.33;;
63005;SDS011;53704;52.532;6.426;2023-03-01T07:52:16;25.90;;;20.30;;
63005;SDS011;53704;52.532;6.426;2023-03-01T07:54:42;31.23;;;21.60;;
63005;SDS011;53704;52.532;6.426;2023-03-01T07:57:09;34.03;;;20.80;;
63005;SDS011;53704;52.532;6.426;2023-03-01T07:59:35;30.73;;;21.43;;
63005;SDS011;53704;52.532;6.426;2023-03-01T08:02:00;33.03;;;20.07;;
63005;SDS011;53704;52.532;6.426;2023-03-01T08:04:26;32.57;;;21.33;;
63005;SDS011;53704;52.532;6.426;2023-03-01T08:06:52;28.23;;;20.90;;
63005;SDS011;53704;52.532;6.426;2023-03-01T08:09:19;24.00;;;20.43;;
63005;SDS011;53704;52.532;6.426;2023-03-01T08:11:45;30.37;;;20.23;;
63005;SDS011;53704;52.532;6.426;2023-03-01T08:14:10;31.43;;;21.57;;
63005;SDS011;53704;52.532;6.426;2023-03-01T08:16:36;31.77;;;20.77;;
63005;SDS011;53704;52.532;6.426;2023-03-01T08:19:08;29.47;;;20.03;;
63005;SDS011;53704;52.532;6.426;2023-03-01T08:21:36;29.85;;;19.83;;
63005;SDS011;53704;52.532;6.426;2023-03-01T08:24:03;26.20;;;19.93;;
63005;SDS011;53704;52.532;6.426;2023-03-01T08:26:30;34.53;;;21.60;;
63005;SDS011;53704;52.532;6.426;2023-03-01T08:28:56;33.33;;;22.37;;
63005;SDS011;53704;52.532;6.426;2023-03-01T08:31:23;31.50;;;21.47;;
63005;SDS011;53704;52.532;6.426;2023-03-01T08:33:55;31.40;;;21.17;;
63005;SDS011;53704;52.532;6.426;2023-03-01T08:36:23;27.37;;;19.43;;
63005;SDS011;53704;52.532;6.426;2023-03-01T08:38:50;29.73;;;19.10;;
63005;SDS011;53704;52.532;6.426;2023-03-01T08:41:16;41.87;;;21.23;;
63005;SDS011;53704;52.532;6.426;2023-03-01T08:43:41;25.83;;;19.97;;
63005;SDS011;53704;52.532;6.426;2023-03-01T08:46:07;26.90;;;18.17;;
63005;SDS011;53704;52.532;6.426;2023-03-01T08:48:32;21.57;;;17.13;;
63005;SDS011;53704;52.532;6.426;2023-03-01T08:51:20;31.20;;;17.83;;
63005;SDS011;53704;52.532;6.426;2023-03-01T08:53:45;23.30;;;17.50;;
63005;SDS011;53704;52.532;6.426;2023-03-01T08:56:11;20.70;;;17.27;;
63005;SDS011;53704;52.532;6.426;2023-03-01T08:58:37;27.90;;;17.23;;
63005;SDS011;53704;52.532;6.426;2023-03-01T09:01:07;25.30;;;16.13;;
63005;SDS011;53704;52.532;6.426;2023-03-01T09:03:34;31.70;;;16.53;;
63005;SDS011;53704;52.532;6.426;2023-03-01T09:06:00;22.90;;;17.13;;
63005;SDS011;53704;52.532;6.426;2023-03-01T09:08:26;18.97;;;14.13;;
63005;SDS011;53704;52.532;6.426;2023-03-01T09:10:52;19.58;;;15.63;;
63005;SDS011;53704;52.532;6.426;2023-03-01T09:13:17;20.43;;;13.63;;
63005;SDS011;53704;52.532;6.426;2023-03-01T09:15:42;14.33;;;12.50;;
63005;SDS011;53704;52.532;6.426;2023-03-01T09:18:08;22.30;;;12.57;;
63005;SDS011;53704;52.532;6.426;2023-03-01T09:20:33;17.67;;;11.10;;
63005;SDS011;53704;52.532;6.426;2023-03-01T09:22:59;20.75;;;10.93;;
63005;SDS011;53704;52.532;6.426;2023-03-01T09:25:24;13.35;;;9.73;;
63005;SDS011;53704;52.532;6.426;2023-03-01T09:27:53;12.85;;;9.20;;
63005;SDS011;53704;52.532;6.426;2023-03-01T09:30:19;11.38;;;8.18;;
63005;SDS011;53704;52.532;6.426;2023-03-01T09:32:46;18.02;;;7.97;;
63005;SDS011;53704;52.532;6.426;2023-03-01T09:35:12;11.37;;;6.77;;
63005;SDS011;53704;52.532;6.426;2023-03-01T09:37:38;9.13;;;5.85;;
63005;SDS011;53704;52.532;6.426;2023-03-01T09:40:18;6.22;;;5.60;;
63005;SDS011;53704;52.532;6.426;2023-03-01T09:42:47;6.50;;;5.63;;
63005;SDS011;53704;52.532;6.426;2023-03-01T09:45:23;5.97;;;3.88;;
63005;SDS011;53704;52.532;6.426;2023-03-01T09:47:52;4.32;;;3.17;;
63005;SDS011;53704;52.532;6.426;2023-03-01T09:50:19;5.22;;;3.30;;
63005;SDS011;53704;52.532;6.426;2023-03-01T09:53:06;2.85;;;2.65;;
63005;SDS011;53704;52.532;6.426;2023-03-01T10:01:56;4.22;;;3.55;;
63005;SDS011;53704;52.532;6.426;2023-03-01T10:04:03;7.32;;;3.28;;
63005;SDS011;53704;52.532;6.426;2023-03-01T10:06:47;7.50;;;3.42;;
63005;SDS011;53704;52.532;6.426;2023-03-01T10:09:21;3.28;;;3.08;;
63005;SDS011;53704;52.532;6.426;2023-03-01T10:11:52;4.25;;;3.50;;
63005;SDS011;53704;52.532;6.426;2023-03-01T10:14:39;3.92;;;3.40;;
63005;SDS011;53704;52.532;6.426;2023-03-01T10:17:27;3.17;;;2.88;;
63005;SDS011;53704;52.532;6.426;2023-03-01T10:20:10;4.53;;;3.90;;
63005;SDS011;53704;52.532;6.426;2023-03-01T10:22:41;5.07;;;3.42;;
63005;SDS011;53704;52.532;6.426;2023-03-01T10:25:08;3.97;;;3.20;;
63005;SDS011;53704;52.532;6.426;2023-03-01T10:30:16;3.75;;;3.40;;
63005;SDS011;53704;52.532;6.426;2023-03-01T10:32:45;3.58;;;2.78;;
63005;SDS011;53704;52.532;6.426;2023-03-01T10:35:24;3.88;;;3.15;;
63005;SDS011;53704;52.532;6.426;2023-03-01T10:38:05;3.80;;;2.88;;
63005;SDS011;53704;52.532;6.426;2023-03-01T10:40:33;7.70;;;3.50;;
63005;SDS011;53704;52.532;6.426;2023-03-01T10:43:03;3.13;;;2.80;;
63005;SDS011;53704;52.532;6.426;2023-03-01T10:48:20;3.55;;;3.25;;
63005;SDS011;53704;52.532;6.426;2023-03-01T10:53:27;10.35;;;3.38;;
63005;SDS011;53704;52.532;6.426;2023-03-01T10:56:04;5.95;;;3.20;;
63005;SDS011;53704;52.532;6.426;2023-03-01T10:58:33;4.93;;;3.67;;
63005;SDS011;53704;52.532;6.426;2023-03-01T11:01:09;5.88;;;3.72;;
63005;SDS011;53704;52.532;6.426;2023-03-01T11:06:31;3.53;;;3.22;;
63005;SDS011;53704;52.532;6.426;2023-03-01T11:09:01;6.22;;;4.03;;
63005;SDS011;53704;52.532;6.426;2023-03-01T11:11:40;8.80;;;3.67;;
63005;SDS011;53704;52.532;6.426;2023-03-01T11:14:07;5.88;;;3.67;;
63005;SDS011;53704;52.532;6.426;2023-03-01T11:16:41;4.83;;;3.57;;
63005;SDS011;53704;52.532;6.426;2023-03-01T11:21:34;4.90;;;4.47;;
63005;SDS011;53704;52.532;6.426;2023-03-01T11:24:04;5.47;;;4.70;;
63005;SDS011;53704;52.532;6.426;2023-03-01T11:26:35;9.30;;;5.35;;
63005;SDS011;53704;52.532;6.426;2023-03-01T11:29:05;8.23;;;4.90;;
63005;SDS011;53704;52.532;6.426;2023-03-01T11:31:46;7.30;;;4.78;;
63005;SDS011;53704;52.532;6.426;2023-03-01T11:34:14;6.15;;;4.65;;
63005;SDS011;53704;52.532;6.426;2023-03-01T11:42:10;8.18;;;4.90;;
63005;SDS011;53704;52.532;6.426;2023-03-01T11:44:40;6.40;;;4.60;;
63005;SDS011;53704;52.532;6.426;2023-03-01T11:50:14;7.07;;;4.78;;
63005;SDS011;53704;52.532;6.426;2023-03-01T11:53:01;7.15;;;4.85;;
63005;SDS011;53704;52.532;6.426;2023-03-01T12:06:42;8.90;;;4.93;;
63005;SDS011;53704;52.532;6.426;2023-03-01T12:20:37;11.18;;;5.63;;
63005;SDS011;53704;52.532;6.426;2023-03-01T12:25:55;13.63;;;8.75;;
63005;SDS011;53704;52.532;6.426;2023-03-01T12:34:24;8.52;;;6.80;;
63005;SDS011;53704;52.532;6.426;2023-03-01T12:42:42;5.22;;;4.78;;
63005;SDS011;53704;52.532;6.426;2023-03-01T12:45:26;5.10;;;4.57;;
63005;SDS011;53704;52.532;6.426;2023-03-01T12:51:06;4.97;;;4.60;;
63005;SDS011;53704;52.532;6.426;2023-03-01T12:53:57;4.85;;;4.55;;
63005;SDS011;53704;52.532;6.426;2023-03-01T12:56:27;6.35;;;4.60;;
63005;SDS011;53704;52.532;6.426;2023-03-01T13:04:12;5.63;;;5.18;;
63005;SDS011;53704;52.532;6.426;2023-03-01T13:17:56;5.03;;;4.63;;
63005;SDS011;53704;52.532;6.426;2023-03-01T13:46:47;4.95;;;4.55;;
63005;SDS011;53704;52.532;6.426;2023-03-01T13:49:16;5.07;;;4.68;;
63005;SDS011;53704;52.532;6.426;2023-03-01T13:51:46;5.80;;;5.10;;
63005;SDS011;53704;52.532;6.426;2023-03-01T13:54:12;7.05;;;5.50;;
63005;SDS011;53704;52.532;6.426;2023-03-01T13:56:39;7.72;;;5.88;;
63005;SDS011;53704;52.532;6.426;2023-03-01T13:59:06;6.90;;;5.40;;
63005;SDS011;53704;52.532;6.426;2023-03-01T14:01:42;5.78;;;5.28;;
63005;SDS011;53704;52.532;6.426;2023-03-01T14:04:29;8.00;;;4.95;;
63005;SDS011;53704;52.532;6.426;2023-03-01T14:07:12;5.20;;;4.53;;
63005;SDS011;53704;52.532;6.426;2023-03-01T14:09:43;9.13;;;4.93;;
63005;SDS011;53704;52.532;6.426;2023-03-01T14:14:59;5.32;;;4.68;;
63005;SDS011;53704;52.532;6.426;2023-03-01T14:20:32;4.97;;;4.57;;
63005;SDS011;53704;52.532;6.426;2023-03-01T14:25:35;6.75;;;4.80;;
63005;SDS011;53704;52.532;6.426;2023-03-01T14:28:16;4.63;;;4.32;;
63005;SDS011;53704;52.532;6.426;2023-03-01T14:30:47;4.90;;;4.50;;
63005;SDS011;53704;52.532;6.426;2023-03-01T14:38:38;6.68;;;4.70;;
63005;SDS011;53704;52.532;6.426;2023-03-01T14:41:11;6.30;;;5.13;;
63005;SDS011;53704;52.532;6.426;2023-03-01T14:43:44;6.43;;;4.75;;
63005;SDS011;53704;52.532;6.426;2023-03-01T14:46:20;5.28;;;4.88;;
63005;SDS011;53704;52.532;6.426;2023-03-01T14:48:52;9.77;;;4.70;;
63005;SDS011;53704;52.532;6.426;2023-03-01T14:51:21;16.00;;;4.90;;
63005;SDS011;53704;52.532;6.426;2023-03-01T14:53:47;5.65;;;5.25;;
63005;SDS011;53704;52.532;6.426;2023-03-01T14:56:15;9.70;;;4.93;;
63005;SDS011;53704;52.532;6.426;2023-03-01T14:58:44;5.35;;;4.95;;
63005;SDS011;53704;52.532;6.426;2023-03-01T15:01:15;5.45;;;5.05;;
63005;SDS011;53704;52.532;6.426;2023-03-01T15:03:43;5.75;;;5.25;;
63005;SDS011;53704;52.532;6.426;2023-03-01T15:06:11;6.05;;;5.55;;
63005;SDS011;53704;52.532;6.426;2023-03-01T15:08:41;5.82;;;5.35;;
63005;SDS011;53704;52.532;6.426;2023-03-01T15:13:49;9.30;;;5.60;;
63005;SDS011;53704;52.532;6.426;2023-03-01T15:16:15;5.32;;;4.93;;
63005;SDS011;53704;52.532;6.426;2023-03-01T15:18:51;8.27;;;5.28;;
63005;SDS011;53704;52.532;6.426;2023-03-01T15:21:23;5.32;;;4.90;;
63005;SDS011;53704;52.532;6.426;2023-03-01T15:24:34;11.73;;;5.30;;
63005;SDS011;53704;52.532;6.426;2023-03-01T15:26:43;7.65;;;5.40;;
63005;SDS011;53704;52.532;6.426;2023-03-01T15:29:17;5.07;;;4.68;;
63005;SDS011;53704;52.532;6.426;2023-03-01T15:31:53;5.18;;;4.75;;
63005;SDS011;53704;52.532;6.426;2023-03-01T15:37:02;5.63;;;5.18;;
63005;SDS011;53704;52.532;6.426;2023-03-01T15:39:32;6.22;;;5.65;;
63005;SDS011;53704;52.532;6.426;2023-03-01T15:42:12;12.57;;;5.55;;
63005;SDS011;53704;52.532;6.426;2023-03-01T15:45:08;5.60;;;5.20;;
63005;SDS011;53704;52.532;6.426;2023-03-01T15:47:48;5.70;;;5.13;;
63005;SDS011;53704;52.532;6.426;2023-03-01T15:50:19;5.13;;;4.72;;
63005;SDS011;53704;52.532;6.426;2023-03-01T15:52:47;6.93;;;5.07;;
63005;SDS011;53704;52.532;6.426;2023-03-01T15:55:17;9.35;;;5.30;;
63005;SDS011;53704;52.532;6.426;2023-03-01T15:57:44;9.93;;;6.03;;
63005;SDS011;53704;52.532;6.426;2023-03-01T16:00:11;7.15;;;6.55;;
63005;SDS011;53704;52.532;6.426;2023-03-01T16:02:38;7.38;;;6.53;;
63005;SDS011;53704;52.532;6.426;2023-03-01T16:05:05;7.20;;;6.35;;
63005;SDS011;53704;52.532;6.426;2023-03-01T16:07:31;6.22;;;5.72;;
63005;SDS011;53704;52.532;6.426;2023-03-01T16:09:56;7.32;;;6.45;;
63005;SDS011;53704;52.532;6.426;2023-03-01T16:12:22;8.85;;;6.85;;
63005;SDS011;53704;52.532;6.426;2023-03-01T16:14:49;6.68;;;5.97;;
63005;SDS011;53704;52.532;6.426;2023-03-01T16:17:15;6.57;;;6.07;;
63005;SDS011;53704;52.532;6.426;2023-03-01T16:19:41;7.00;;;6.20;;
63005;SDS011;53704;52.532;6.426;2023-03-01T16:22:08;7.05;;;6.32;;
63005;SDS011;53704;52.532;6.426;2023-03-01T16:24:35;9.73;;;6.20;;
63005;SDS011;53704;52.532;6.426;2023-03-01T16:27:01;9.10;;;6.45;;
63005;SDS011;53704;52.532;6.426;2023-03-01T16:29:27;7.10;;;6.35;;
63005;SDS011;53704;52.532;6.426;2023-03-01T16:31:54;8.30;;;7.05;;
63005;SDS011;53704;52.532;6.426;2023-03-01T16:34:19;7.55;;;6.80;;
63005;SDS011;53704;52.532;6.426;2023-03-01T16:36:46;8.48;;;7.32;;
63005;SDS011;53704;52.532;6.426;2023-03-01T16:39:12;10.00;;;7.68;;
63005;SDS011;53704;52.532;6.426;2023-03-01T16:41:37;9.80;;;7.63;;
63005;SDS011;53704;52.532;6.426;2023-03-01T16:44:03;11.35;;;8.25;;
63005;SDS011;53704;52.532;6.426;2023-03-01T16:46:28;15.35;;;8.65;;
63005;SDS011;53704;52.532;6.426;2023-03-01T16:48:54;9.27;;;8.48;;
63005;SDS011;53704;52.532;6.426;2023-03-01T16:51:20;11.05;;;7.90;;
63005;SDS011;53704;52.532;6.426;2023-03-01T16:53:46;10.15;;;8.95;;
63005;SDS011;53704;52.532;6.426;2023-03-01T16:56:13;10.57;;;8.93;;
63005;SDS011;53704;52.532;6.426;2023-03-01T16:58:39;9.18;;;8.23;;
63005;SDS011;53704;52.532;6.426;2023-03-01T17:01:07;11.90;;;8.88;;
63005;SDS011;53704;52.532;6.426;2023-03-01T17:03:44;10.25;;;8.15;;
63005;SDS011;53704;52.532;6.426;2023-03-01T17:06:12;10.40;;;8.15;;